Time;durP1;ratioP1;P1;durP2;ratioP2;P2;SDS_P1;SDS_P2;PMS_P1;PMS_P2;Temp;Humidity;BMP_temperature;BMP_pressure;BME280_temperature;BME280_humidity;BME280_pressure;Samples;Min_cycle;Max_cycle;Signal;HPM_P1;HPM_P2
2022/10/16 00:01:59;;;;;;;7.55;1.80;;;14.30;99.90;;;;;;5116883;28;20028;-71
2022/10/16 00:04:25;;;;;;;7.38;2.00;;;14.30;99.90;;;;;;5117245;28;20042;-71
2022/10/16 00:06:50;;;;;;;7.18;1.80;;;14.20;99.90;;;;;;5117242;28;20308;-71
2022/10/16 00:09:16;;;;;;;6.82;1.80;;;14.20;99.90;;;;;;5116365;28;20085;-72
2022/10/16 00:11:42;;;;;;;7.22;1.80;;;14.20;99.90;;;;;;5117153;28;20042;-71
2022/10/16 00:14:11;;;;;;;13.75;1.70;;;14.00;99.90;;;;;;5116905;28;20417;-71
2022/10/16 00:16:37;;;;;;;7.28;1.52;;;14.00;99.90;;;;;;5116909;28;20039;-72
2022/10/16 00:19:03;;;;;;;9.25;1.75;;;14.00;99.90;;;;;;5116973;28;20047;-71
2022/10/16 00:21:30;;;;;;;7.47;1.65;;;14.10;99.90;;;;;;5116704;28;20070;-71
2022/10/16 00:24:05;;;;;;;10.73;2.10;;;14.20;99.90;;;;;;5099063;28;20047;-71
2022/10/16 00:26:33;;;;;;;8.18;2.03;;;14.30;99.90;;;;;;5116731;28;20092;-71
2022/10/16 00:28:59;;;;;;;12.10;2.17;;;14.40;99.90;;;;;;5117047;28;20035;-71
2022/10/16 00:31:25;;;;;;;9.57;2.60;;;14.40;99.90;;;;;;5116606;28;20035;-71
2022/10/16 00:33:51;;;;;;;8.93;2.08;;;14.30;99.90;;;;;;5116604;28;20040;-71
2022/10/16 00:36:23;;;;;;;10.70;2.03;;;14.30;99.90;;;;;;5116958;28;20124;-72
2022/10/16 00:38:57;;;;;;;11.27;2.00;;;14.30;99.90;;;;;;5116919;28;20040;-71
2022/10/16 00:41:24;;;;;;;9.15;1.85;;;14.20;99.90;;;;;;5116608;28;20475;-71
2022/10/16 00:43:51;;;;;;;5.03;1.85;;;14.20;99.90;;;;;;5116657;28;20429;-71
2022/10/16 00:46:21;;;;;;;12.30;1.92;;;14.20;99.90;;;;;;5116889;28;20039;-71
2022/10/16 00:49:04;;;;;;;8.27;1.70;;;14.10;99.90;;;;;;5116872;28;20071;-71
2022/10/16 00:51:35;;;;;;;10.02;1.52;;;14.10;99.90;;;;;;5116869;28;20104;-71
2022/10/16 00:54:03;;;;;;;5.28;1.63;;;14.10;99.90;;;;;;5116784;28;20039;-71
2022/10/16 00:56:29;;;;;;;6.68;1.85;;;14.00;99.90;;;;;;5116826;28;20046;-71
2022/10/16 00:58:55;;;;;;;8.55;1.80;;;14.10;99.90;;;;;;5116745;28;20032;-71
2022/10/16 01:01:21;;;;;;;8.30;1.45;;;14.10;99.90;;;;;;5116311;28;20070;-71
2022/10/16 01:03:46;;;;;;;10.77;2.25;;;14.10;99.90;;;;;;5116763;28;20438;-71
2022/10/16 01:06:26;;;;;;;12.48;2.00;;;14.10;99.90;;;;;;5098816;28;20105;-71
2022/10/16 01:09:13;;;;;;;7.00;1.70;;;14.10;99.90;;;;;;5117020;28;20035;-71
2022/10/16 01:11:50;;;;;;;8.38;1.35;;;14.20;99.90;;;;;;5116383;28;20332;-71
2022/10/16 01:14:26;;;;;;;5.65;1.42;;;14.20;99.90;;;;;;5116393;28;20383;-71
2022/10/16 01:17:42;;;;;;;6.70;1.90;;;14.20;99.90;;;;;;5116670;28;20085;-71
2022/10/16 01:20:14;;;;;;;10.48;1.70;;;14.10;99.90;;;;;;5056835;28;20070;-71
2022/10/16 01:23:02;;;;;;;10.75;1.73;;;14.10;99.90;;;;;;5120219;28;20049;-71
2022/10/16 01:25:45;;;;;;;3.88;1.10;;;14.10;99.90;;;;;;5120211;28;20044;-71
2022/10/16 01:28:13;;;;;;;6.53;1.42;;;14.00;99.90;;;;;;5119997;28;20047;-71
2022/10/16 01:30:41;;;;;;;7.65;1.50;;;14.10;99.90;;;;;;5101303;28;20177;-71
2022/10/16 01:33:20;;;;;;;5.93;1.50;;;14.20;99.90;;;;;;5119630;28;20475;-71
2022/10/16 01:35:52;;;;;;;5.13;1.50;;;14.20;99.90;;;;;;5120026;28;20039;-71
2022/10/16 01:38:37;;;;;;;5.65;1.27;;;14.20;99.90;;;;;;5119764;28;20044;-71
2022/10/16 01:41:15;;;;;;;3.40;1.17;;;14.20;99.90;;;;;;5119602;28;20120;-72
2022/10/16 01:43:49;;;;;;;6.53;1.45;;;14.10;99.90;;;;;;5119507;28;20541;-71
2022/10/16 01:46:18;;;;;;;8.25;1.73;;;14.20;99.90;;;;;;5119784;28;20122;-71
2022/10/16 01:48:44;;;;;;;5.70;1.20;;;14.10;99.90;;;;;;5119731;28;20302;-71
2022/10/16 01:51:13;;;;;;;5.75;1.70;;;14.10;99.90;;;;;;5119656;28;20123;-71
2022/10/16 01:53:41;;;;;;;6.72;1.55;;;14.20;99.90;;;;;;5119554;28;20051;-71
2022/10/16 01:56:12;;;;;;;9.80;2.08;;;14.20;99.90;;;;;;5102114;28;20047;-71
2022/10/16 01:58:44;;;;;;;6.57;1.50;;;14.20;99.90;;;;;;5119194;28;20425;-71
2022/10/16 02:01:13;;;;;;;8.52;1.45;;;14.10;99.90;;;;;;5119144;28;20039;-72
2022/10/16 02:03:42;;;;;;;7.10;1.33;;;14.10;99.90;;;;;;5119417;28;20099;-72
2022/10/16 02:06:08;;;;;;;7.93;1.80;;;14.20;99.90;;;;;;5119085;28;20118;-72
2022/10/16 02:08:34;;;;;;;7.93;1.70;;;14.20;99.90;;;;;;5119350;28;20107;-71
2022/10/16 02:11:01;;;;;;;6.97;1.27;;;14.30;99.90;;;;;;5119232;28;20084;-72
2022/10/16 02:13:35;;;;;;;9.63;1.52;;;14.20;99.90;;;;;;5119143;28;20043;-71
2022/10/16 02:16:01;;;;;;;7.25;1.65;;;14.10;99.90;;;;;;5119180;28;20043;-71
2022/10/16 02:18:29;;;;;;;7.93;1.58;;;14.20;99.90;;;;;;5119120;28;20039;-72
2022/10/16 02:21:19;;;;;;;3.13;1.13;;;14.30;99.90;;;;;;5118701;28;20058;-71
2022/10/16 02:23:47;;;;;;;8.20;1.40;;;14.20;99.90;;;;;;5119109;28;20122;-71
2022/10/16 02:26:19;;;;;;;5.63;1.13;;;14.20;99.90;;;;;;5118981;28;20043;-71
2022/10/16 02:28:52;;;;;;;4.35;1.10;;;14.30;99.90;;;;;;5100952;28;20035;-71
2022/10/16 02:31:26;;;;;;;7.18;1.20;;;14.30;99.90;;;;;;5117725;28;20489;-71
2022/10/16 02:33:54;;;;;;;4.60;1.00;;;14.20;99.90;;;;;;5118823;28;20118;-71
2022/10/16 02:36:21;;;;;;;6.47;1.30;;;14.20;99.90;;;;;;5118478;28;20039;-71
2022/10/16 02:38:46;;;;;;;4.22;1.52;;;14.20;99.90;;;;;;5118734;28;20484;-71
2022/10/16 02:41:13;;;;;;;5.22;1.45;;;14.30;99.90;;;;;;5118703;28;20127;-72
2022/10/16 02:43:39;;;;;;;5.97;1.10;;;14.40;99.90;;;;;;5118641;28;20054;-71
2022/10/16 02:46:05;;;;;;;3.67;1.20;;;14.40;99.90;;;;;;5118334;28;20044;-71
2022/10/16 02:48:30;;;;;;;5.57;1.45;;;14.30;99.90;;;;;;5118273;28;20079;-71
2022/10/16 02:50:57;;;;;;;8.38;1.50;;;14.20;99.90;;;;;;5118254;28;20136;-71
2022/10/16 02:53:22;;;;;;;2.85;1.20;;;14.40;99.90;;;;;;5118421;28;20046;-71
2022/10/16 02:55:48;;;;;;;6.72;1.40;;;14.40;99.90;;;;;;5118473;28;20036;-71
2022/10/16 02:58:14;;;;;;;4.93;1.27;;;14.50;99.90;;;;;;5118392;28;20043;-71
2022/10/16 03:00:39;;;;;;;4.03;1.00;;;14.40;99.90;;;;;;5117878;28;20320;-71
2022/10/16 03:03:05;;;;;;;8.48;1.30;;;14.30;99.90;;;;;;5118276;28;20119;-71
2022/10/16 03:05:31;;;;;;;5.72;1.30;;;14.30;99.90;;;;;;5118226;28;20383;-71
2022/10/16 03:07:59;;;;;;;8.93;1.35;;;14.30;99.90;;;;;;5118173;28;20039;-71
2022/10/16 03:10:25;;;;;;;5.07;1.58;;;14.20;99.90;;;;;;5118112;28;20372;-71
2022/10/16 03:12:51;;;;;;;5.22;1.30;;;14.20;99.90;;;;;;5118013;28;20127;-71
2022/10/16 03:15:16;;;;;;;5.90;1.40;;;14.30;99.90;;;;;;5118019;28;20031;-71
2022/10/16 03:17:42;;;;;;;3.50;1.40;;;14.30;99.90;;;;;;5117734;28;20071;-72
2022/10/16 03:20:09;;;;;;;2.45;1.20;;;14.20;99.90;;;;;;5096359;28;20098;-71
2022/10/16 03:22:34;;;;;;;10.68;1.60;;;14.30;99.90;;;;;;5097474;28;20168;-71
2022/10/16 03:25:00;;;;;;;5.97;1.40;;;14.40;99.90;;;;;;5096225;28;20048;-71
2022/10/16 03:27:26;;;;;;;3.40;1.15;;;14.40;99.90;;;;;;5097458;28;20046;-71
2022/10/16 03:29:52;;;;;;;6.68;1.30;;;14.30;99.90;;;;;;5097144;28;20040;-71
2022/10/16 03:32:18;;;;;;;4.13;1.55;;;14.40;99.90;;;;;;5096603;28;20040;-71
2022/10/16 03:34:43;;;;;;;6.30;1.45;;;14.30;99.90;;;;;;5097344;28;20044;-72
2022/10/16 03:37:09;;;;;;;4.78;1.17;;;14.30;99.90;;;;;;5097328;28;20325;-71
2022/10/16 03:39:35;;;;;;;6.60;1.55;;;14.20;99.90;;;;;;5097311;28;20479;-71
2022/10/16 03:42:00;;;;;;;2.95;1.40;;;14.20;99.90;;;;;;5097095;28;20035;-71
2022/10/16 03:44:26;;;;;;;4.30;1.35;;;14.10;99.90;;;;;;5096480;28;20040;-72
2022/10/16 03:46:52;;;;;;;5.97;1.50;;;14.20;99.90;;;;;;5097147;28;20115;-71
2022/10/16 03:49:17;;;;;;;7.15;1.67;;;14.20;99.90;;;;;;5097120;28;20032;-71
2022/10/16 03:51:43;;;;;;;6.18;1.40;;;14.30;99.90;;;;;;5097096;28;20040;-71
2022/10/16 03:54:10;;;;;;;5.65;1.33;;;14.20;99.90;;;;;;5097028;28;20479;-71
2022/10/16 03:56:35;;;;;;;9.00;1.77;;;14.30;99.90;;;;;;5097007;28;20069;-71
2022/10/16 03:59:01;;;;;;;3.70;1.33;;;14.30;99.90;;;;;;5096681;28;20075;-71
2022/10/16 04:01:27;;;;;;;5.78;1.33;;;14.40;99.90;;;;;;5095262;28;20036;-71
2022/10/16 04:03:52;;;;;;;8.45;1.70;;;14.30;99.90;;;;;;5096975;28;20042;-71
2022/10/16 04:06:18;;;;;;;4.55;1.58;;;14.30;99.90;;;;;;5096614;28;20043;-71
2022/10/16 04:08:44;;;;;;;6.07;1.42;;;14.30;99.90;;;;;;5095954;28;20044;-71
2022/10/16 04:11:09;;;;;;;4.45;1.30;;;14.30;99.90;;;;;;5096903;28;20040;-71
2022/10/16 04:13:35;;;;;;;6.00;1.65;;;14.40;99.90;;;;;;5096502;28;20157;-71
2022/10/16 04:16:00;;;;;;;6.18;1.60;;;14.40;99.90;;;;;;5096518;28;20051;-71
2022/10/16 04:18:27;;;;;;;4.32;1.55;;;14.40;99.90;;;;;;5096496;28;20032;-72
2022/10/16 04:20:53;;;;;;;5.70;1.50;;;14.30;99.90;;;;;;5110239;28;20051;-71
2022/10/16 04:23:19;;;;;;;4.88;1.40;;;14.30;99.90;;;;;;5116988;28;20079;-71
2022/10/16 04:25:45;;;;;;;6.97;1.65;;;14.20;99.90;;;;;;5116759;28;20047;-71
2022/10/16 04:28:10;;;;;;;4.28;1.45;;;14.20;99.90;;;;;;5116802;28;20420;-72
2022/10/16 04:30:38;;;;;;;13.23;2.08;;;14.10;99.90;;;;;;5116435;28;20048;-71
2022/10/16 04:33:04;;;;;;;4.78;1.70;;;14.00;99.90;;;;;;5116693;28;20305;-71
2022/10/16 04:35:30;;;;;;;5.28;1.90;;;14.00;99.90;;;;;;5116742;28;20038;-71
2022/10/16 04:37:58;;;;;;;5.47;1.70;;;14.10;99.90;;;;;;5116796;28;20034;-71
2022/10/16 04:40:23;;;;;;;6.95;1.75;;;14.00;99.90;;;;;;5116905;28;20218;-71
2022/10/16 04:42:49;;;;;;;3.60;1.40;;;14.00;99.90;;;;;;5116978;28;20122;-71
2022/10/16 04:45:15;;;;;;;8.95;1.63;;;14.00;99.90;;;;;;5116950;28;20040;-71
2022/10/16 04:47:40;;;;;;;4.38;1.67;;;14.00;99.90;;;;;;5116896;28;20416;-71
2022/10/16 04:50:07;;;;;;;5.60;1.85;;;14.10;99.90;;;;;;5116627;28;20123;-71
2022/10/16 04:52:32;;;;;;;5.38;2.00;;;14.20;99.90;;;;;;5116512;28;20036;-71
2022/10/16 04:55:01;;;;;;;4.50;1.73;;;14.20;99.90;;;;;;5118916;28;20034;-71
2022/10/16 04:57:27;;;;;;;4.18;1.67;;;14.20;99.90;;;;;;5120957;28;20101;-71
2022/10/16 04:59:53;;;;;;;7.30;1.70;;;14.30;99.90;;;;;;5120691;28;20084;-71
2022/10/16 05:02:19;;;;;;;4.30;1.63;;;14.20;99.90;;;;;;5120158;28;20118;-71
2022/10/16 05:04:45;;;;;;;7.80;1.92;;;14.10;99.90;;;;;;5102546;28;20035;-71
2022/10/16 05:07:10;;;;;;;4.28;1.90;;;14.10;99.90;;;;;;5120590;28;20043;-71
2022/10/16 05:09:36;;;;;;;5.43;2.10;;;14.10;99.90;;;;;;5120195;28;20332;-71
2022/10/16 05:12:03;;;;;;;8.45;2.40;;;14.00;99.90;;;;;;5120033;28;20044;-71
2022/10/16 05:14:29;;;;;;;6.80;2.25;;;14.00;99.90;;;;;;5120431;28;20043;-71
2022/10/16 05:16:55;;;;;;;8.02;2.47;;;14.00;99.90;;;;;;5120117;28;20051;-71
2022/10/16 05:19:20;;;;;;;5.97;2.38;;;14.10;99.90;;;;;;5119832;28;20039;-72
2022/10/16 05:21:46;;;;;;;5.43;2.00;;;14.20;99.90;;;;;;5119871;28;20044;-71
2022/10/16 05:24:12;;;;;;;9.68;3.17;;;14.20;99.90;;;;;;5120182;28;20053;-71
2022/10/16 05:26:37;;;;;;;6.90;2.70;;;14.20;99.90;;;;;;5120178;28;20048;-72
2022/10/16 05:29:03;;;;;;;7.75;2.60;;;14.20;99.90;;;;;;5120146;28;20050;-71
2022/10/16 05:31:29;;;;;;;7.95;2.60;;;14.10;99.90;;;;;;5119724;28;20096;-72
2022/10/16 05:34:01;;;;;;;4.10;2.33;;;14.20;99.90;;;;;;5119914;28;20118;-71
2022/10/16 05:36:27;;;;;;;7.78;2.20;;;14.30;99.90;;;;;;5101986;28;20298;-71
2022/10/16 05:38:53;;;;;;;4.15;2.35;;;14.20;99.90;;;;;;5119918;28;20122;-71
2022/10/16 05:41:23;;;;;;;4.72;2.33;;;14.20;99.90;;;;;;5119910;28;20043;-72
2022/10/16 05:43:49;;;;;;;6.13;2.40;;;14.20;99.90;;;;;;5101846;28;20051;-71
2022/10/16 05:46:15;;;;;;;4.05;2.33;;;14.20;99.90;;;;;;5119768;28;20039;-71
2022/10/16 05:48:41;;;;;;;10.52;2.83;;;14.30;99.90;;;;;;5119497;28;20088;-71
2022/10/16 05:51:10;;;;;;;8.27;2.95;;;14.40;99.90;;;;;;5119669;28;20114;-71
2022/10/16 05:53:37;;;;;;;11.48;3.30;;;14.30;99.90;;;;;;5119585;28;20123;-71
2022/10/16 05:56:04;;;;;;;5.32;2.50;;;14.30;99.90;;;;;;5119596;28;20039;-72
2022/10/16 05:58:32;;;;;;;7.43;2.63;;;14.30;99.90;;;;;;5101248;28;20089;-71
2022/10/16 06:01:02;;;;;;;6.38;2.17;;;14.30;99.90;;;;;;5118791;28;20439;-71
2022/10/16 06:03:28;;;;;;;8.52;2.80;;;14.20;99.90;;;;;;5119166;28;20329;-72
2022/10/16 06:05:54;;;;;;;4.72;2.63;;;14.30;99.90;;;;;;5118534;28;20028;-72
2022/10/16 06:08:21;;;;;;;6.45;2.83;;;14.20;99.90;;;;;;5119341;28;20421;-71
2022/10/16 06:10:48;;;;;;;7.10;2.83;;;14.30;99.90;;;;;;5119362;28;20114;-71
2022/10/16 06:13:14;;;;;;;6.60;2.30;;;14.20;99.90;;;;;;5119218;28;20340;-72
2022/10/16 06:15:44;;;;;;;6.50;2.22;;;14.10;99.90;;;;;;5119196;28;20093;-72
2022/10/16 06:18:10;;;;;;;6.22;2.20;;;14.20;99.90;;;;;;5100809;28;20334;-72
2022/10/16 06:20:37;;;;;;;8.25;2.35;;;14.20;99.90;;;;;;5118723;28;20052;-71
2022/10/16 06:23:04;;;;;;;5.88;2.60;;;14.10;99.90;;;;;;5118827;28;20314;-71
2022/10/16 06:25:30;;;;;;;6.65;2.70;;;14.20;99.90;;;;;;5119024;28;20333;-72
2022/10/16 06:27:56;;;;;;;7.38;2.65;;;14.10;99.90;;;;;;5118973;28;20039;-72
2022/10/16 06:30:22;;;;;;;8.57;3.17;;;14.20;99.90;;;;;;5118562;28;20193;-72
2022/10/16 06:32:48;;;;;;;7.60;3.00;;;14.20;99.90;;;;;;5118822;28;20047;-71
2022/10/16 06:35:13;;;;;;;6.07;2.90;;;14.30;99.90;;;;;;5118867;28;20031;-71
2022/10/16 06:37:39;;;;;;;7.20;2.63;;;14.30;99.90;;;;;;5118811;28;20039;-71
2022/10/16 06:40:05;;;;;;;5.25;2.63;;;14.30;99.90;;;;;;5118718;28;20031;-71
2022/10/16 06:42:31;;;;;;;5.70;2.50;;;14.20;99.90;;;;;;5118717;28;20040;-71
2022/10/16 06:44:56;;;;;;;6.80;2.40;;;14.20;99.90;;;;;;5118684;28;20062;-71
2022/10/16 06:47:22;;;;;;;10.02;2.60;;;14.30;99.90;;;;;;5118605;28;20420;-71
2022/10/16 06:49:48;;;;;;;8.88;2.05;;;14.20;99.90;;;;;;5100571;28;20061;-71
2022/10/16 06:52:13;;;;;;;7.35;2.60;;;14.30;99.90;;;;;;5118427;28;20102;-71
2022/10/16 06:54:39;;;;;;;10.38;2.80;;;14.30;99.90;;;;;;5118414;28;20328;-71
2022/10/16 06:57:05;;;;;;;6.68;2.08;;;14.40;99.90;;;;;;5100115;28;20039;-71
2022/10/16 06:59:31;;;;;;;4.85;2.28;;;14.40;99.90;;;;;;5118363;28;20075;-71
2022/10/16 07:01:56;;;;;;;8.40;2.60;;;14.40;99.90;;;;;;5117898;28;20032;-71
2022/10/16 07:04:22;;;;;;;6.10;2.30;;;14.60;99.90;;;;;;5100147;28;20452;-71
2022/10/16 07:06:48;;;;;;;4.82;1.90;;;14.60;99.90;;;;;;5118240;28;20126;-71
2022/10/16 07:09:13;;;;;;;8.40;2.20;;;14.40;99.90;;;;;;5118387;28;20370;-71
2022/10/16 07:11:40;;;;;;;6.93;2.42;;;14.40;99.90;;;;;;5117829;28;20040;-72
2022/10/16 07:14:18;;;;;;;11.23;2.72;;;14.50;99.90;;;;;;5117957;28;20417;-71
2022/10/16 07:16:44;;;;;;;5.72;2.05;;;14.40;99.90;;;;;;5118305;28;20043;-72
2022/10/16 07:19:11;;;;;;;5.60;2.63;;;14.50;99.90;;;;;;5118019;28;20118;-71
2022/10/16 07:21:37;;;;;;;7.00;2.45;;;14.40;99.90;;;;;;5117548;28;20109;-71
2022/10/16 07:24:06;;;;;;;7.40;2.50;;;14.40;99.90;;;;;;5117885;28;20052;-71
2022/10/16 07:26:34;;;;;;;7.38;2.50;;;14.40;99.90;;;;;;5117831;28;20043;-72
2022/10/16 07:29:00;;;;;;;7.63;2.42;;;14.40;99.90;;;;;;5117821;28;20046;-71
2022/10/16 07:31:26;;;;;;;8.90;2.42;;;14.30;99.90;;;;;;5099348;28;20051;-71
2022/10/16 07:33:52;;;;;;;6.63;1.90;;;14.40;99.90;;;;;;5117693;28;20325;-71
2022/10/16 07:36:19;;;;;;;9.23;2.35;;;14.40;99.90;;;;;;5117646;28;20083;-71
2022/10/16 07:38:46;;;;;;;7.88;2.10;;;14.50;99.90;;;;;;5117668;28;20081;-72
2022/10/16 07:41:15;;;;;;;6.75;2.15;;;14.50;99.90;;;;;;5117325;28;20417;-72
2022/10/16 07:43:45;;;;;;;8.25;1.92;;;14.50;99.90;;;;;;5117605;28;20134;-71
2022/10/16 07:46:10;;;;;;;8.32;2.70;;;14.50;99.90;;;;;;5117700;28;20401;-72
2022/10/16 07:48:36;;;;;;;8.43;3.03;;;14.60;99.90;;;;;;5117524;28;20039;-72
2022/10/16 07:51:05;;;;;;;7.18;2.55;;;14.70;99.90;;;;;;5117493;28;20481;-71
2022/10/16 07:53:31;;;;;;;8.20;2.50;;;14.60;99.90;;;;;;5117382;28;20044;-71
2022/10/16 07:56:01;;;;;;;10.02;2.42;;;14.80;99.90;;;;;;5117429;28;20043;-71
2022/10/16 07:58:30;;;;;;;6.03;2.08;;;14.90;99.90;;;;;;5099135;28;20039;-74
2022/10/16 08:00:56;;;;;;;5.55;2.33;;;14.90;99.90;;;;;;5116964;28;20042;-75
2022/10/16 08:03:23;;;;;;;7.07;2.72;;;14.90;99.90;;;;;;5117522;28;20039;-75
2022/10/16 08:05:50;;;;;;;9.65;2.72;;;15.10;99.90;;;;;;5117329;28;20044;-73
2022/10/16 08:08:16;;;;;;;5.65;2.15;;;15.30;99.90;;;;;;5117281;28;20133;-73
2022/10/16 08:10:42;;;;;;;6.28;2.28;;;15.30;99.90;;;;;;5116969;28;20436;-74
2022/10/16 08:13:09;;;;;;;7.53;2.10;;;15.20;99.90;;;;;;5117332;28;20123;-74
2022/10/16 08:15:34;;;;;;;6.25;2.08;;;15.30;99.90;;;;;;5120607;28;20058;-76
2022/10/16 08:18:03;;;;;;;5.05;1.80;;;15.20;99.90;;;;;;5117195;28;20473;-73
2022/10/16 08:20:31;;;;;;;5.07;1.90;;;15.30;99.90;;;;;;5116845;28;20051;-72
2022/10/16 08:22:56;;;;;;;5.82;2.00;;;15.20;99.90;;;;;;5116687;28;20123;-72
2022/10/16 08:25:23;;;;;;;3.20;1.50;;;15.20;99.90;;;;;;5098805;28;20071;-73
2022/10/16 08:27:50;;;;;;;5.25;1.83;;;15.10;99.90;;;;;;5099057;28;20098;-72
2022/10/16 08:30:17;;;;;;;4.10;1.60;;;15.10;99.90;;;;;;5119492;28;20385;-73
2022/10/16 08:32:43;;;;;;;8.35;1.80;;;15.10;99.90;;;;;;5120763;28;20043;-73
2022/10/16 08:35:10;;;;;;;5.80;1.85;;;15.10;99.90;;;;;;5121294;28;20040;-73
2022/10/16 08:37:37;;;;;;;8.23;1.42;;;15.10;99.90;;;;;;5100351;28;20042;-75
2022/10/16 08:40:05;;;;;;;8.82;1.38;;;15.20;99.90;;;;;;5101352;28;20047;-74
2022/10/16 08:42:52;;;;;;;5.00;1.20;;;15.30;99.90;;;;;;5120696;28;20451;-73
2022/10/16 08:45:39;;;;;;;7.35;1.63;;;15.40;99.90;;;;;;5104907;28;20298;-74
2022/10/16 08:48:23;;;;;;;6.68;1.00;;;15.40;99.90;;;;;;5120976;28;20405;-74
2022/10/16 08:50:51;;;;;;;4.95;0.98;;;15.40;99.90;;;;;;5120934;28;20043;-74
2022/10/16 08:53:46;;;;;;;11.07;1.42;;;15.50;99.90;;;;;;5120416;28;20489;-74
2022/10/16 08:56:12;;;;;;;7.88;1.30;;;15.70;99.90;;;;;;5120793;28;20118;-74
2022/10/16 08:58:37;;;;;;;12.38;1.08;;;15.70;99.90;;;;;;5120757;28;20114;-73
2022/10/16 09:01:11;;;;;;;3.88;1.08;;;15.70;99.90;;;;;;5120334;28;20035;-74
2022/10/16 09:04:05;;;;;;;4.93;1.33;;;15.80;99.90;;;;;;5120707;28;20040;-74
2022/10/16 09:07:04;;;;;;;9.63;1.40;;;15.70;99.90;;;;;;5120293;28;20047;-74
2022/10/16 09:09:49;;;;;;;11.73;1.20;;;15.80;99.90;;;;;;5102521;28;20048;-74
2022/10/16 09:12:21;;;;;;;6.93;1.08;;;15.70;99.90;;;;;;5120095;28;20420;-74
2022/10/16 09:15:14;;;;;;;7.00;1.10;;;15.70;99.90;;;;;;5120424;28;20336;-74
2022/10/16 09:17:59;;;;;;;9.05;1.08;;;15.70;99.90;;;;;;5102194;28;20047;-74
2022/10/16 09:20:46;;;;;;;7.55;1.35;;;15.90;99.90;;;;;;5120191;28;20107;-74
2022/10/16 09:23:27;;;;;;;6.53;1.40;;;16.00;99.90;;;;;;5102260;28;20386;-73
2022/10/16 09:25:55;;;;;;;6.25;1.48;;;16.10;99.90;;;;;;5120222;28;20039;-74
2022/10/16 09:28:20;;;;;;;9.50;1.50;;;16.10;99.90;;;;;;5120179;28;20074;-74
2022/10/16 09:30:49;;;;;;;5.63;1.00;;;16.10;99.90;;;;;;5119772;28;20467;-74
2022/10/16 09:33:17;;;;;;;5.85;1.35;;;16.20;99.90;;;;;;5102498;28;20115;-74
2022/10/16 09:35:51;;;;;;;5.90;1.35;;;16.40;99.90;;;;;;5120029;28;20036;-74
2022/10/16 09:38:28;;;;;;;6.90;1.10;;;16.50;99.90;;;;;;5102041;28;20107;-74
2022/10/16 09:40:56;;;;;;;7.72;1.20;;;16.40;99.90;;;;;;5100371;28;20048;-74
2022/10/16 09:43:47;;;;;;;10.15;1.30;;;16.50;99.90;;;;;;5119908;28;20043;-73
2022/10/16 09:46:33;;;;;;;8.38;1.10;;;16.60;99.90;;;;;;5118909;28;20086;-72
2022/10/16 09:49:04;;;;;;;10.23;1.45;;;16.60;99.90;;;;;;5119814;28;20044;-72
2022/10/16 09:51:36;;;;;;;9.52;1.80;;;16.40;99.90;;;;;;5119792;28;20036;-73
2022/10/16 09:54:19;;;;;;;13.40;1.95;;;16.30;99.90;;;;;;5119590;28;20050;-73
2022/10/16 09:56:49;;;;;;;10.63;1.55;;;16.30;99.90;;;;;;5106072;28;20066;-74
2022/10/16 09:59:23;;;;;;;16.48;1.60;;;16.50;99.90;;;;;;5117028;28;20035;-75
2022/10/16 10:01:56;;;;;;;11.38;1.85;;;16.40;99.90;;;;;;5118338;28;20090;-74
2022/10/16 10:04:28;;;;;;;11.77;1.67;;;16.50;99.90;;;;;;5118941;28;20050;-73
2022/10/16 10:06:56;;;;;;;11.23;1.75;;;16.60;99.90;;;;;;5119350;28;20114;-73
2022/10/16 10:09:35;;;;;;;13.25;2.38;;;16.80;99.90;;;;;;5119436;28;20093;-73
2022/10/16 10:12:02;;;;;;;12.85;1.67;;;17.00;99.90;;;;;;5119482;28;20074;-73
2022/10/16 10:14:37;;;;;;;9.88;1.50;;;17.20;99.90;;;;;;5119117;28;20048;-73
2022/10/16 10:17:05;;;;;;;12.65;1.88;;;17.40;99.90;;;;;;5119385;28;20043;-74
2022/10/16 10:19:55;;;;;;;6.88;1.35;;;17.60;99.90;;;;;;5119112;28;20079;-74
2022/10/16 10:22:32;;;;;;;11.73;1.63;;;17.70;99.90;;;;;;5119244;28;20042;-74
2022/10/16 10:25:13;;;;;;;9.88;1.35;;;17.80;99.90;;;;;;5119759;28;20270;-74
2022/10/16 10:27:53;;;;;;;11.20;1.63;;;18.00;99.90;;;;;;5119636;28;20027;-73
2022/10/16 10:30:27;;;;;;;10.90;1.42;;;17.90;99.70;;;;;;5119090;28;20071;-74
2022/10/16 10:33:10;;;;;;;7.72;1.38;;;17.70;99.50;;;;;;5118552;28;20311;-73
2022/10/16 10:35:47;;;;;;;9.55;1.45;;;17.90;99.90;;;;;;5119032;28;20035;-73
2022/10/16 10:38:23;;;;;;;11.63;1.73;;;18.20;99.90;;;;;;5118929;28;20093;-73
2022/10/16 10:40:58;;;;;;;13.15;1.95;;;18.30;99.50;;;;;;5118947;28;20114;-73
2022/10/16 10:43:27;;;;;;;13.38;1.63;;;18.40;99.10;;;;;;5118887;28;20308;-72
2022/10/16 10:45:59;;;;;;;8.63;1.45;;;18.20;99.30;;;;;;5118785;28;20046;-73
2022/10/16 10:48:54;;;;;;;12.02;1.42;;;18.30;99.30;;;;;;5118746;28;20028;-73
2022/10/16 10:51:31;;;;;;;15.95;1.75;;;18.60;99.40;;;;;;5118565;28;20049;-73
2022/10/16 10:54:00;;;;;;;11.48;2.00;;;18.80;98.70;;;;;;5118301;28;20123;-74
2022/10/16 10:56:40;;;;;;;12.98;2.53;;;18.80;98.50;;;;;;5118564;28;20334;-72
2022/10/16 10:59:25;;;;;;;16.08;1.95;;;18.60;98.20;;;;;;5118501;28;20126;-72
2022/10/16 11:02:03;;;;;;;9.98;1.88;;;18.40;98.60;;;;;;5118056;28;20028;-72
2022/10/16 11:04:40;;;;;;;15.57;1.67;;;18.20;98.60;;;;;;5118438;28;20107;-72
2022/10/16 11:07:18;;;;;;;16.88;1.95;;;18.40;98.50;;;;;;5118361;28;20035;-72
2022/10/16 11:09:56;;;;;;;12.32;1.42;;;18.20;98.10;;;;;;5111879;28;20027;-72
2022/10/16 11:12:29;;;;;;;14.65;1.92;;;18.10;98.40;;;;;;5116379;28;20036;-73
2022/10/16 11:15:01;;;;;;;14.65;2.28;;;18.20;98.00;;;;;;5117681;28;20476;-73
2022/10/16 11:17:50;;;;;;;12.40;1.65;;;18.10;98.30;;;;;;5118131;28;20110;-72
2022/10/16 11:20:37;;;;;;;14.57;2.13;;;18.10;98.10;;;;;;5117860;28;20047;-72
2022/10/16 11:23:16;;;;;;;;;;;18.30;97.80;;;;;;5118600;28;20046;-71
2022/10/16 11:25:44;;;;;;;12.52;1.50;;;18.20;97.80;;;;;;5117989;28;20000;-72
2022/10/16 11:28:11;;;;;;;12.65;1.65;;;18.30;97.40;;;;;;5117669;28;20039;-72
2022/10/16 11:30:57;;;;;;;10.40;1.45;;;18.30;97.50;;;;;;5099169;28;20416;-72
2022/10/16 11:33:31;;;;;;;9.52;1.45;;;18.60;97.80;;;;;;5117844;28;20032;-72
2022/10/16 11:36:00;;;;;;;11.43;1.45;;;19.00;97.90;;;;;;5117543;28;20040;-72
2022/10/16 11:38:49;;;;;;;12.57;1.70;;;19.40;97.70;;;;;;5117741;28;20112;-72
2022/10/16 11:41:25;;;;;;;17.00;1.48;;;19.40;96.40;;;;;;5065792;28;20076;-72
2022/10/16 11:44:14;;;;;;;17.23;2.63;;;19.20;96.20;;;;;;5117714;28;20437;-72
2022/10/16 11:46:45;;;;;;;16.20;1.83;;;18.90;96.70;;;;;;5117377;28;20285;-71
2022/10/16 11:49:18;;;;;;;16.67;2.03;;;18.90;96.60;;;;;;5117653;28;20472;-73
2022/10/16 11:51:54;;;;;;;21.70;2.25;;;19.10;96.90;;;;;;5118570;28;20039;-72
2022/10/16 11:54:38;;;;;;;;;;;19.20;97.20;;;;;;5118387;28;20114;-72
2022/10/16 11:57:46;;;;;;;11.13;1.83;;;18.80;96.90;;;;;;5117506;28;19919;-71
2022/10/16 12:00:43;;;;;;;13.60;1.40;;;18.60;96.90;;;;;;5015071;28;20029;-72
2022/10/16 12:03:14;;;;;;;13.32;1.65;;;18.30;96.60;;;;;;5097462;28;20047;-71
2022/10/16 12:06:01;;;;;;;10.80;1.20;;;18.00;97.00;;;;;;5113697;28;20035;-79
2022/10/16 12:08:27;;;;;;;19.63;2.65;;;17.90;97.20;;;;;;5107911;28;20040;-72
2022/10/16 12:10:55;;;;;;;14.18;1.48;;;17.80;97.40;;;;;;5098310;28;20059;-72
2022/10/16 12:13:30;;;;;;;15.77;1.83;;;17.50;97.00;;;;;;5097065;28;20048;-73
2022/10/16 12:16:22;;;;;;;11.70;2.22;;;17.30;97.20;;;;;;5116192;28;20044;-72
2022/10/16 12:18:48;;;;;;;8.93;1.33;;;17.40;97.20;;;;;;5117247;28;20031;-72
2022/10/16 12:21:16;;;;;;;19.45;1.88;;;17.90;96.70;;;;;;5116784;28;20123;-73
2022/10/16 12:23:55;;;;;;;9.45;1.50;;;18.40;96.90;;;;;;5098914;28;20341;-72
2022/10/16 12:26:44;;;;;;;11.38;1.80;;;18.60;96.40;;;;;;5117160;28;20123;-72
2022/10/16 12:29:16;;;;;;;16.13;2.42;;;19.30;96.60;;;;;;5116868;28;20044;-72
2022/10/16 12:31:48;;;;;;;14.35;1.80;;;20.00;95.60;;;;;;5116424;28;20036;-72
2022/10/16 12:34:34;;;;;;;14.73;1.60;;;20.20;95.50;;;;;;5116628;28;20086;-72
2022/10/16 12:37:23;;;;;;;11.98;1.60;;;20.90;95.20;;;;;;5117048;28;20324;-71
2022/10/16 12:39:49;;;;;;;13.93;1.60;;;21.20;94.40;;;;;;5116755;28;20038;-73
2022/10/16 12:42:29;;;;;;;12.20;1.75;;;21.10;94.50;;;;;;5116527;28;20042;-73
2022/10/16 12:44:55;;;;;;;13.25;1.67;;;20.70;94.60;;;;;;5116990;28;20035;-73
2022/10/16 12:47:38;;;;;;;9.38;1.10;;;20.70;95.20;;;;;;5116915;28;20447;-72
2022/10/16 12:50:23;;;;;;;10.63;1.48;;;20.70;94.70;;;;;;5116687;28;20035;-74
2022/10/16 12:52:48;;;;;;;11.68;2.10;;;20.00;95.20;;;;;;5098784;28;20460;-72
2022/10/16 12:55:19;;;;;;;14.60;1.67;;;20.00;94.90;;;;;;5116871;28;20043;-72
2022/10/16 12:58:23;;;;;;;13.13;1.75;;;19.40;94.70;;;;;;5116877;28;20325;-72
2022/10/16 13:00:48;;;;;;;15.45;1.85;;;19.00;95.30;;;;;;5116462;28;20040;-73
2022/10/16 13:03:55;;;;;;;9.60;2.28;;;19.10;95.60;;;;;;5116496;28;20043;-72
2022/10/16 13:06:37;;;;;;;11.13;1.83;;;19.10;95.70;;;;;;5014298;28;20490;-72